APRS [IN73BN], 0 Stunde(n), DL3EL [08:34:41, 0s].
EA1AHA 43.32.72N 005.54.38WIN73BN 3.154km 233°SW06:26:28ZWind 225°/001kn, Böen bis 002kn, Temp 10.00c, Regen 0.0mm, letzte 24h 0.0mm, seit 0h 0.0mm, Baro 1022.2h, Hum: 89%(3EA1AHA-13)
EA1DHE 43.33.98N 005.58.57WIN73AN 8.162km 273°W06:32:13ZMMDVM DVS 434.3500/434.3500 CC1
ED1ZAY 43.29.47N 005.56.54WIN73AL 9.602km 215°SW06:32:21ZRD625 438.3000/430.7000 CC1
EB1TK 43.32.20N 005.42.32WIN73DM 13.970km 102°ESE06:33:55ZWind 218°/006kn, Böen bis 008kn, Temp 10.00c, Regen 0.0mm, letzte 24h 0.0mm, seit 0h 0.0mm, Baro 1024.2h, Hum: 86%(3EB1TK-13)
EB1TK-6>CQ,TCPIP*,qAC,T2SPAIN:SatGate - APRS Satellite Traffic and Reporting System (ASTARS)(2EB1TK-6)
LEGM 43.26.15N 005.49.84WIN73CK 14.511km 166°SSE06:30:02ZHelipuerto de La Morgal: LEAS 240530Z 22006KT CAVOK 10/08 Q1021 NOSIG=
LEEL 43.32.98N 005.41.71WIN73DN 14.546km 96°E06:30:03ZHelipuerto de El Musel: LEAS 240530Z 22006KT CAVOK 10/08 Q1021 NOSIG=
LEMR 43.25.83N 005.49.60WIN73CK 15.181km 165°SSE06:30:04ZAerodromo de la Morgal: LEAS 240530Z 22006KT CAVOK 10/08 Q1021 NOSIG=
EA1IPU 43.26.21N 005.46.62WIN73CK 16.036km 150°SSE06:30:05ZMMDVM MMDVM HS Hat 439.8000/439.8000 CC1
EA1FFA 43.31.53N 005.40.64WIN73DM 16.447km 104°ESE06:31:22ZMMDVM MMDVM HS Hat 438.8000/438.8000 CC1
EA1IEJ 43.31.81N 005.40.25WIN73DM 16.837km 102°ESE06:30:58ZMMDVM MMDVM HS Hat 438.8500/438.8500 CC6
EA1DZR 43.31.48N 005.40.00WIN73EM 17.308km 104°ESE06:32:15ZMMDVM DVS 434.3500/434.3500 CC1
EA1ABW 43.24.77N 005.47.77WIN73CJ 17.791km 159°SSE06:30:52ZMMDVM MMDVM HS Hat 439.8250/439.8250 CC1
ED1ZAE 43.27.97N 005.40.54WIN73DL 19.292km 124°SE06:21:59Z400 M. PICO SAN MARTIN (GIJON) 13.4V,15.5C(3ED1ZAE-3)
2m Voice 145.5875 -0.600 Mhz(2ED1ZAE-C)
ED1ZAU 43.23.04N 005.52.75WIN73BJ 19.848km 181°S06:32:22ZRD625 438.5000/430.9000 CC1
ED1ZAS 43.27.52N 005.40.17WIN73DL 20.173km 125°SE06:32:22ZRD985 438.2250/430.6250 CC1
LEHU 43.22.63N 005.49.57WIN73CJ 20.976km 169°S06:30:02ZHelipuerto del HUCA: LEAS 240530Z 22006KT CAVOK 10/08 Q1021 NOSIG=
EA1YR 43.22.09N 005.51.86WIN73BI 21.604km 178°S06:32:15ZMMDVM DVS 434.3500/434.3500 CC1
33D00 43.21.63N 005.51.13WIN73BI 22.533km 175°S06:01:44Z33-D-00 Protección Civil REMER / Delegación del Gobierno en Asturias
EA1JAY 43.21.54N 005.51.34WIN73BI 22.677km 176°S06:00:06Z434.525MHz Nodo TETRA DMO(3EA1JAY-4)
EB1GEM 43.30.00N 005.36.07WIN73EM 23.134km 107°ESE06:21:24ZWX3in1Plus2.0 U=13.3V,T=??.?C/??.?F(3EB1GEM-3)
EA1L 43.20.37N 005.51.13WIN73BI 24.842km 176°S06:30:05Zea1l@ure.es V=13.8V,T=??.?C
Wind 155°/001kn, Böen bis 003kn, Temp 11.11c, Regen 0.0mm, letzte 24h 0.0mm, seit 0h 0.0mm, Baro 1019.4h, Hum: 0%(2EA1L-13)
EA1FLQ 43.22.00N 005.36.35WIN73EI 30.744km 135°SE06:31:32ZMMDVM DVMega 439.9750/439.9750 CC1
EA1HJA 43.28.10N 005.30.45WIN73FL 31.425km 109°ESE06:32:54ZEA1HJA@URE.ES
IN73FL WX3IN1+ 2.0 - V=13.2V,TX TEMP=26.9C(2EA1HJA-2)
EC1KV 43.34.01N 006.16.01WIN63UN 31.569km 271°W06:12:06Z VOLT.=13.5 V - TEMP.=??.? C(3EC1KV-1)
EA1FHR 43.28.72N 005.26.41WIN73GL 36.260km 105°ESE06:30:30ZMMDVM MMDVM HS Hat 439.1500/439.1500 CC1
EA1HWD 43.28.96N 005.26.30WIN73GL 36.304km 104°ESE06:30:22Z144.575FM Local frecuency VHF. 434.2500/434.2500 CC1
EB1DGC 43.12.60N 005.45.59WIN73CF 40.276km 167°SSE06:31:04ZMMDVM MMDVM HS Hat 433.4500/433.4500 CC1
EA1JBL 43.12.28N 005.47.42WIN73CE 40.346km 170°S06:31:36ZMMDVM DVMega 435.3000/435.3000 CC1
EA1HWA 43.12.00N 005.47.40WIN73CE 40.883km 170°S06:31:32ZMMDVM MMDVM HS Hat 433.4500/433.4500 CC1
EA1RCG 43.09.45N 005.49.78WIN73CD 45.156km 175°S06:30:21ZGRUPO RADIO GALENA (GRG) 433.4500/433.4500 CC1
LETN 43.20.05N 006.22.69WIN63TI 47.905km 238°WSW06:30:03ZAerodromo de La Curiscada (Tineo): LEAS 240530Z 22006KT CAVOK 10/08 Q1021 NOSIG=
EA1JBU 43.30.80N 005.16.20WIN73IM 49.052km 96°E06:00:06ZEA1JBU(3EA1JBU-2)
EA1JBE 43.30.90N 005.16.15WIN73IM 49.111km 96°E06:30:04ZEA1JBU(3EA1JBE-13)
MAIN QTH http://qrz.com/db/ea1jbe(2EA1JBE-1)

aprs.pl 5.0.011w DL3EL © 2006-2021 [1045883]